Bookmark and Share
Track history (hours):
 

Maersk Essen

Last reported at 2014-Apr-18 08:33 UTC. Time now 2014-Apr-19 19:42 UTC.
Position N 30°37' E 122°04'.

Length 367 m; draft 12.8 m.

Type: Ship (hazmat cat A). MMSI: 538004007.

NotesDate/timePositionNaut miles runAvg speedWind from/ knotsBaromVisibWave heightAir tempDewpointWater temp
2014-Apr-18 08:33N 30°37' E 122°04'1110.4
2014-Apr-18 07:32N 30°33' E 122°16'6 6.3
2014-Apr-18 06:33N 30°33' E 122°23'19 3.1
2014-Apr-18 00:33N 30°28' E 122°44'1211.6
2014-Apr-17 23:33N 30°21' E 122°55'27 8.3
2014-Apr-17 20:15N 29°54' E 122°57'1910.7
2014-Apr-17 18:31N 29°41' E 122°41'1111.6
2014-Apr-17 17:33N 29°41' E 122°28'1110.8
2014-Apr-17 16:33N 29°46' E 122°17'26 2.6
2014-Apr-17 06:34N 29°57' E 121°50'0 0.0
2014-Apr-17 05:33N 29°57' E 121°50'0 0.0
2014-Apr-17 04:30N 29°57' E 121°50'1 1.4
2014-Apr-17 03:33N 29°58' E 121°51'1211.5
2014-Apr-17 02:33N 29°55' E 122°04'1212.4
2014-Apr-17 01:34N 29°48' E 122°15'10 9.8
2014-Apr-17 00:33N 29°44' E 122°26'7 6.9
2014-Apr-16 23:33N 29°41' E 122°33'8 8.5
2014-Apr-16 22:34N 29°44' E 122°42'8 8.3
2014-Apr-16 21:33N 29°52' E 122°45'33011.4
2014-Apr-15 16:32N 35°19' E 121°50'2512.7
2014-Apr-15 14:31N 35°38' E 121°30'31 7.8
2014-Apr-15 10:34N 35°59' E 121°01'1413.7
2014-Apr-15 09:32N 35°58' E 120°43'1212.9
2014-Apr-15 08:34N 35°59' E 120°28'1010.2
2014-Apr-15 07:34N 36°02' E 120°16'12 0.6
2014-Apr-14 11:33N 35°60' E 120°31'1211.7
2014-Apr-14 10:32N 35°58' E 120°45'144 8.9
2014-Apr-13 18:21N 37°33' E 122°60'1012.9
2014-Apr-13 17:33N 37°43' E 122°55'1414.0
2014-Apr-13 16:33N 37°50' E 122°41'1514.2
2014-Apr-13 15:29N 37°58' E 122°24'1313.4
2014-Apr-13 14:32N 38°00' E 122°08'1313.0
2014-Apr-13 13:32N 38°06' E 121°53'1313.2
2014-Apr-13 12:33N 38°12' E 121°38'17011.3
2014-Apr-12 21:31N 38°54' E 118°07'1212.5
2014-Apr-12 20:33N 38°57' E 117°52'5 5.0
2014-Apr-12 19:33N 38°60' E 117°47'0 0.0
2014-Apr-12 18:05N 38°60' E 117°47'0 0.0
2014-Apr-12 17:29N 38°60' E 117°47'0 0.0
2014-Apr-12 16:29N 38°60' E 117°47'0 0.0
2014-Apr-12 15:23N 38°60' E 117°47'0 0.0
2014-Apr-12 14:29N 38°60' E 117°47'0 0.0
2014-Apr-12 13:11N 38°60' E 117°47'0 0.0
2014-Apr-12 12:05N 38°60' E 117°47'0 0.0
2014-Apr-12 11:29N 38°60' E 117°47'0 0.0
2014-Apr-12 10:29N 38°60' E 117°47'0 0.0
2014-Apr-12 09:17N 38°60' E 117°47'0 0.0
2014-Apr-12 08:17N 38°60' E 117°47'0 0.0
2014-Apr-12 06:29N 38°60' E 117°47'0 0.0
2014-Apr-12 05:29N 38°60' E 117°47'0 0.0
2014-Apr-12 04:29N 38°60' E 117°47'0 0.0
2014-Apr-12 03:29N 38°60' E 117°47'0 0.0
2014-Apr-12 02:29N 38°60' E 117°47'0 0.0
2014-Apr-12 01:29N 38°60' E 117°47'0 0.0
2014-Apr-12 00:29N 38°60' E 117°47'0 0.0
2014-Apr-11 23:29N 38°60' E 117°47'0 0.0
2014-Apr-11 22:23N 38°60' E 117°47'0 0.0
2014-Apr-11 21:29N 38°60' E 117°47'0 0.0
2014-Apr-11 20:29N 38°60' E 117°47'0 0.0
2014-Apr-11 19:29N 38°60' E 117°47'0 0.2
2014-Apr-11 18:33N 38°59' E 117°47'8 8.4
2014-Apr-11 17:33N 38°57' E 117°57'9 9.5
2014-Apr-11 16:33N 38°55' E 118°09'7 5.1
2014-Apr-11 15:14N 38°52' E 118°17'4 5.3
2014-Apr-11 14:32N 38°52' E 118°22'11 9.8
2014-Apr-11 13:28N 38°50' E 118°35'1913.6
2014-Apr-11 12:06N 38°47' E 118°59'10212.9
2014-Apr-11 04:14N 38°32' E 121°07'911.6
2014-Apr-11 03:27N 38°31' E 121°19'1314.7
2014-Apr-11 02:33N 38°32' E 121°36'1817.8
2014-Apr-11 01:33N 38°45' E 121°52'7 0.2
2014-Apr-09 22:30N 38°49' E 121°58'0 0.0
2014-Apr-09 19:30N 38°49' E 121°58'0 0.0
2014-Apr-09 18:06N 38°49' E 121°58'0 0.0
2014-Apr-09 09:12N 38°49' E 121°58'0 0.1
2014-Apr-09 08:24N 38°49' E 121°58'0 0.1
2014-Apr-09 07:30N 38°49' E 121°58'0 0.0
2014-Apr-09 05:30N 38°49' E 121°58'0 0.0
2014-Apr-09 04:06N 38°49' E 121°58'0 0.0
2014-Apr-09 03:30N 38°49' E 121°58'0 0.0
2014-Apr-09 02:24N 38°49' E 121°58'1 1.1
2014-Apr-09 01:32N 38°48' E 121°57'1211.7
2014-Apr-09 00:33N 38°37' E 122°01'1010.0
2014-Apr-08 23:33N 38°28' E 122°05'1 0.6
2014-Apr-08 22:33N 38°27' E 122°05'1 0.6
2014-Apr-08 21:33N 38°27' E 122°04'2 1.7
2014-Apr-08 20:33N 38°26' E 122°06'1111.0
2014-Apr-08 19:33N 38°18' E 122°17'1211.7
2014-Apr-08 18:33N 38°11' E 122°28'1212.0
2014-Apr-08 17:33N 38°03' E 122°39'1212.1
2014-Apr-08 16:33N 37°55' E 122°51'1212.0
2014-Apr-08 15:33N 37°47' E 123°03'1111.3
2014-Apr-08 14:33N 37°38' E 123°12'1211.7
2014-Apr-08 13:32N 37°27' E 123°15'1111.6
2014-Apr-08 12:33N 37°17' E 123°22'  

Dump ship's entire track history

sailing weather and tide predictions

Maersk Essen — V7UQ8 — position and weather